createdAt,value
2022-12-13T00:01:48.810Z,7.80
2022-12-13T00:04:17.633Z,6.73
2022-12-13T00:06:46.135Z,6.83
2022-12-13T00:09:15.148Z,7.00
2022-12-13T00:11:43.984Z,7.33
2022-12-13T00:14:14.122Z,6.97
2022-12-13T00:16:45.623Z,7.57
2022-12-13T00:19:16.068Z,7.50
2022-12-13T00:21:44.421Z,6.27
2022-12-13T00:24:12.636Z,6.27
2022-12-13T00:26:40.916Z,7.37
2022-12-13T00:29:10.102Z,7.53
2022-12-13T00:32:00.219Z,7.27
2022-12-13T00:34:27.998Z,6.63
2022-12-13T00:36:59.058Z,7.43
2022-12-13T00:39:27.951Z,7.03
2022-12-13T00:41:56.423Z,6.77
2022-12-13T00:44:24.715Z,7.10
2022-12-13T00:46:53.261Z,6.67
2022-12-13T00:49:21.645Z,7.50
2022-12-13T00:51:51.196Z,7.73
2022-12-13T00:54:19.702Z,6.47
2022-12-13T00:56:47.839Z,6.30
2022-12-13T00:59:16.408Z,6.27
2022-12-13T01:01:48.106Z,6.67
2022-12-13T01:04:16.477Z,6.90
2022-12-13T01:06:46.875Z,7.20
2022-12-13T01:09:19.667Z,7.07
2022-12-13T01:11:48.884Z,6.40
2022-12-13T01:14:17.757Z,6.03
2022-12-13T01:16:46.468Z,6.27
2022-12-13T01:19:14.775Z,6.30
2022-12-13T01:21:43.137Z,6.00
2022-12-13T01:24:11.795Z,6.37
2022-12-13T01:26:41.381Z,6.67
2022-12-13T01:29:11.465Z,6.37
2022-12-13T01:31:41.604Z,6.57
2022-12-13T01:34:11.398Z,6.00
2022-12-13T01:36:40.264Z,6.90
2022-12-13T01:39:14.649Z,7.30
2022-12-13T01:41:49.247Z,6.00
2022-12-13T01:45:00.286Z,5.53
2022-12-13T01:47:32.780Z,6.33
2022-12-13T01:50:04.658Z,6.43
2022-12-13T01:52:36.056Z,6.03
2022-12-13T01:55:07.528Z,6.50
2022-12-13T01:57:45.343Z,6.20
2022-12-13T02:00:16.421Z,5.83
2022-12-13T02:02:45.617Z,6.00
2022-12-13T02:05:19.905Z,6.63
2022-12-13T02:07:49.604Z,6.27
2022-12-13T02:10:18.034Z,5.93
2022-12-13T02:12:47.768Z,6.50
2022-12-13T02:15:18.682Z,6.90
2022-12-13T02:18:13.248Z,6.00
2022-12-13T02:20:58.496Z,5.10
2022-12-13T02:23:51.132Z,6.20
2022-12-13T02:26:53.569Z,7.13
2022-12-13T02:29:53.393Z,6.30
2022-12-13T02:32:31.306Z,6.17
2022-12-13T02:35:06.425Z,5.87
2022-12-13T02:37:47.926Z,6.83
2022-12-13T02:40:23.428Z,6.53
2022-12-13T02:42:59.071Z,5.90
2022-12-13T02:49:33.527Z,5.90
2022-12-13T02:52:02.571Z,5.67
2022-12-13T02:54:31.626Z,5.97
2022-12-13T02:57:00.938Z,6.37
2022-12-13T02:59:32.685Z,5.50
2022-12-13T03:02:10.908Z,5.47
2022-12-13T03:05:13.692Z,4.93
2022-12-13T03:07:50.521Z,5.70
2022-12-13T03:10:23.345Z,5.37
2022-12-13T03:13:14.433Z,6.27
2022-12-13T03:15:48.828Z,6.40
2022-12-13T03:18:20.686Z,5.73
2022-12-13T03:20:51.975Z,5.63
2022-12-13T03:23:21.588Z,5.90
2022-12-13T03:25:52.541Z,5.33
2022-12-13T03:28:20.888Z,6.17
2022-12-13T03:30:49.418Z,5.47
2022-12-13T03:33:18.019Z,5.87
2022-12-13T03:35:46.939Z,5.70
2022-12-13T03:38:21.178Z,5.17
2022-12-13T03:40:53.914Z,5.40
2022-12-13T03:43:23.039Z,5.60
2022-12-13T03:45:52.375Z,5.83
2022-12-13T03:48:22.332Z,6.13
2022-12-13T03:50:52.280Z,5.20
2022-12-13T03:53:32.736Z,5.63
2022-12-13T03:56:03.456Z,5.47
2022-12-13T03:58:35.882Z,5.37
2022-12-13T04:01:07.936Z,5.70
2022-12-13T04:03:36.735Z,6.37
2022-12-13T04:06:05.800Z,5.67
2022-12-13T04:08:36.367Z,5.60
2022-12-13T04:11:25.747Z,5.43
2022-12-13T04:13:53.231Z,5.50
2022-12-13T04:16:21.909Z,5.77
2022-12-13T04:18:50.181Z,5.90
2022-12-13T04:21:18.372Z,6.23
2022-12-13T04:23:48.010Z,5.23
2022-12-13T04:26:16.204Z,6.33
2022-12-13T04:28:47.011Z,5.70
2022-12-13T04:31:19.150Z,4.97
2022-12-13T04:33:47.346Z,5.50
2022-12-13T04:36:32.309Z,5.50
2022-12-13T04:39:03.117Z,4.90
2022-12-13T04:41:36.117Z,5.07
2022-12-13T04:44:05.415Z,5.40
2022-12-13T04:46:34.056Z,5.03
2022-12-13T04:49:02.504Z,5.67
2022-12-13T04:51:31.311Z,5.40
2022-12-13T04:54:13.054Z,5.03
2022-12-13T04:56:48.962Z,5.57
2022-12-13T04:59:17.188Z,5.63
2022-12-13T05:01:45.494Z,5.10
2022-12-13T05:04:13.675Z,5.03
2022-12-13T05:06:41.940Z,5.50
2022-12-13T05:09:11.418Z,5.37
2022-12-13T05:11:45.522Z,5.60
2022-12-13T05:14:23.167Z,5.50
2022-12-13T05:16:53.281Z,5.13
2022-12-13T05:19:21.529Z,5.17
2022-12-13T05:22:02.148Z,5.87
2022-12-13T05:24:31.684Z,5.03
2022-12-13T05:27:00.799Z,5.07
2022-12-13T05:29:30.389Z,5.03
2022-12-13T05:31:59.010Z,5.20
2022-12-13T05:34:27.425Z,5.83
2022-12-13T05:36:55.705Z,5.60
2022-12-13T05:39:27.722Z,5.00
2022-12-13T05:42:01.188Z,4.57
2022-12-13T05:44:32.938Z,5.40
2022-12-13T05:47:01.877Z,4.93
2022-12-13T05:49:30.812Z,5.20
2022-12-13T05:51:59.084Z,5.57
2022-12-13T05:54:27.279Z,4.90
2022-12-13T05:56:55.486Z,5.37
2022-12-13T05:59:23.636Z,5.00
2022-12-13T06:01:53.225Z,5.67
2022-12-13T06:04:22.266Z,4.83
2022-12-13T06:06:51.174Z,5.13
2022-12-13T06:09:20.147Z,4.77
2022-12-13T06:11:48.360Z,5.10
2022-12-13T06:14:22.142Z,4.73
2022-12-13T06:16:53.475Z,5.40
2022-12-13T06:19:22.610Z,5.63
2022-12-13T06:21:50.867Z,5.47
2022-12-13T06:24:20.987Z,5.70
2022-12-13T06:26:49.343Z,5.70
2022-12-13T06:29:24.167Z,4.57
2022-12-13T06:32:02.135Z,6.10
2022-12-13T06:34:33.799Z,5.37
2022-12-13T06:37:03.344Z,5.20
2022-12-13T06:39:33.254Z,5.17
2022-12-13T06:42:02.877Z,4.80
2022-12-13T06:44:31.075Z,5.10
2022-12-13T06:47:10.144Z,5.07
2022-12-13T06:49:43.114Z,4.73
2022-12-13T06:52:13.172Z,4.93
2022-12-13T06:54:41.515Z,5.20
2022-12-13T06:57:09.854Z,4.23
2022-12-13T06:59:38.124Z,4.67
2022-12-13T07:02:25.233Z,5.13
2022-12-13T07:04:56.190Z,4.73
2022-12-13T07:07:25.906Z,4.93
2022-12-13T07:09:54.812Z,5.47
2022-12-13T07:12:23.139Z,5.00
2022-12-13T07:14:51.664Z,5.33
2022-12-13T07:17:33.572Z,5.30
2022-12-13T07:20:05.021Z,4.63
2022-12-13T07:22:34.479Z,5.30
2022-12-13T07:25:04.863Z,4.70
2022-12-13T07:27:33.312Z,5.00
2022-12-13T07:30:01.638Z,4.10
2022-12-13T07:32:31.541Z,5.00
2022-12-13T07:34:59.789Z,5.03
2022-12-13T07:37:30.061Z,4.67
2022-12-13T07:40:03.980Z,4.63
2022-12-13T07:42:32.954Z,4.60
2022-12-13T07:45:01.283Z,5.00
2022-12-13T07:47:32.201Z,5.20
2022-12-13T07:50:01.714Z,5.17
2022-12-13T07:52:30.488Z,4.93
2022-12-13T07:54:58.656Z,4.90
2022-12-13T07:57:26.860Z,5.50
2022-12-13T07:59:55.036Z,4.00
2022-12-13T08:02:23.205Z,4.60
2022-12-13T08:04:54.660Z,4.90
2022-12-13T08:07:23.672Z,5.70
2022-12-13T08:09:53.117Z,4.70
2022-12-13T08:12:22.417Z,4.63
2022-12-13T08:14:53.228Z,4.73
2022-12-13T08:17:22.319Z,4.83
2022-12-13T08:19:51.949Z,4.87
2022-12-13T08:22:23.901Z,4.27
2022-12-13T08:24:53.027Z,4.97
2022-12-13T08:27:21.304Z,4.80
2022-12-13T08:29:49.496Z,4.70
2022-12-13T08:32:17.795Z,4.47
2022-12-13T08:34:46.647Z,4.07
2022-12-13T08:37:16.653Z,3.83
2022-12-13T08:39:45.620Z,3.93
2022-12-13T08:42:18.204Z,4.40
2022-12-13T08:44:49.344Z,4.60
2022-12-13T08:47:24.379Z,4.47
2022-12-13T08:49:55.116Z,5.30
2022-12-13T08:52:25.213Z,4.50
2022-12-13T08:54:53.366Z,5.23
2022-12-13T08:57:21.577Z,7.30
2022-12-13T08:59:50.149Z,7.60
2022-12-13T09:02:18.514Z,5.50
2022-12-13T09:04:46.856Z,6.50
2022-12-13T09:07:15.279Z,7.20
2022-12-13T09:09:44.859Z,5.27
2022-12-13T09:12:29.646Z,6.10
2022-12-13T09:15:01.206Z,6.70
2022-12-13T09:17:37.227Z,7.50
2022-12-13T09:20:10.117Z,7.30
2022-12-13T09:23:01.130Z,6.10
2022-12-13T09:25:37.371Z,6.30
2022-12-13T09:28:08.140Z,5.97
2022-12-13T09:30:36.488Z,7.70
2022-12-13T09:33:28.549Z,7.30
2022-12-13T09:35:53.194Z,6.23
2022-12-13T09:38:21.726Z,7.03
2022-12-13T09:40:58.962Z,7.67
2022-12-13T09:43:33.419Z,8.07
2022-12-13T09:46:23.244Z,6.27
2022-12-13T09:49:01.815Z,7.17
2022-12-13T09:51:41.236Z,6.13
2022-12-13T09:54:18.138Z,5.47
2022-12-13T09:56:50.880Z,6.20
2022-12-13T09:59:22.635Z,7.37
2022-12-13T10:01:50.837Z,6.90
2022-12-13T10:04:19.858Z,7.07
2022-12-13T10:06:48.994Z,6.43
2022-12-13T10:09:17.211Z,6.27
2022-12-13T10:11:54.384Z,6.40
2022-12-13T10:14:27.776Z,6.57
2022-12-13T10:16:58.879Z,6.77
2022-12-13T10:19:34.724Z,7.70
2022-12-13T10:22:05.544Z,8.03
2022-12-13T10:24:52.071Z,6.90
2022-12-13T10:27:28.439Z,8.20
2022-12-13T10:30:08.931Z,6.40
2022-12-13T10:32:46.972Z,7.90
2022-12-13T10:35:24.406Z,6.90
2022-12-13T10:37:53.082Z,6.93
2022-12-13T10:40:33.611Z,6.13
2022-12-13T10:43:12.958Z,6.57
2022-12-13T10:45:41.955Z,5.67
2022-12-13T10:48:24.066Z,5.30
2022-12-13T10:51:01.004Z,5.83
2022-12-13T10:53:33.483Z,5.50
2022-12-13T10:56:03.110Z,5.40
2022-12-13T10:58:41.949Z,5.80
2022-12-13T11:01:23.910Z,5.93
2022-12-13T11:04:02.101Z,5.00
2022-12-13T11:06:47.311Z,5.37
2022-12-13T11:09:23.141Z,5.50
2022-12-13T11:11:58.369Z,4.80
2022-12-13T11:14:35.595Z,5.03
2022-12-13T11:17:10.151Z,4.63
2022-12-13T11:19:41.887Z,6.50
2022-12-13T11:22:11.723Z,4.50
2022-12-13T11:24:43.472Z,5.30
2022-12-13T11:27:28.978Z,4.83
2022-12-13T11:30:11.156Z,4.83
2022-12-13T11:32:59.071Z,4.37
2022-12-13T11:35:33.929Z,4.83
2022-12-13T11:38:12.325Z,4.40
2022-12-13T11:40:45.913Z,4.60
2022-12-13T11:43:24.638Z,4.80
2022-12-13T11:45:59.558Z,4.40
2022-12-13T11:48:39.085Z,5.17
2022-12-13T11:51:09.871Z,4.47
2022-12-13T11:53:49.387Z,3.87
2022-12-13T11:56:23.905Z,3.63
2022-12-13T11:59:08.632Z,4.07
2022-12-13T12:01:47.355Z,4.17
2022-12-13T12:04:27.972Z,3.50
2022-12-13T12:07:24.433Z,4.27
2022-12-13T12:09:52.741Z,4.37
2022-12-13T12:12:25.946Z,3.90
2022-12-13T12:14:57.985Z,4.03
2022-12-13T12:17:44.951Z,3.97
2022-12-13T12:20:24.000Z,4.10
2022-12-13T12:23:05.759Z,4.00
2022-12-13T12:25:45.404Z,3.73
2022-12-13T12:28:26.630Z,3.73
2022-12-13T12:31:03.154Z,3.80
2022-12-13T12:33:40.756Z,4.07
2022-12-13T12:36:46.257Z,4.57
2022-12-13T12:39:26.903Z,3.90
2022-12-13T12:42:20.195Z,4.00
2022-12-13T12:45:04.345Z,3.33
2022-12-13T12:50:43.396Z,3.83
2022-12-13T12:53:36.061Z,3.70
2022-12-13T12:56:24.545Z,3.40
2022-12-13T12:58:58.986Z,3.60
2022-12-13T13:01:43.555Z,4.00
2022-12-13T13:04:22.732Z,3.80
2022-12-13T13:07:01.366Z,4.50
2022-12-13T13:09:32.316Z,8.17
2022-12-13T13:12:28.480Z,11.97
2022-12-13T13:14:51.913Z,13.03
2022-12-13T13:17:48.486Z,12.23
2022-12-13T13:20:24.447Z,12.07
2022-12-13T13:23:25.188Z,11.63
2022-12-13T13:26:16.103Z,11.43
2022-12-13T13:28:34.840Z,12.47
2022-12-13T13:31:06.101Z,12.53
2022-12-13T13:33:46.747Z,11.73
2022-12-13T13:36:52.690Z,12.50
2022-12-13T13:39:39.973Z,14.40
2022-12-13T13:42:19.124Z,13.80
2022-12-13T13:45:12.637Z,13.37
2022-12-13T13:47:43.109Z,12.87
2022-12-13T13:51:01.613Z,12.43
2022-12-13T13:54:06.690Z,12.33
2022-12-13T13:57:13.371Z,12.50
2022-12-13T14:00:22.664Z,11.77
2022-12-13T14:03:35.003Z,10.23
2022-12-13T14:06:49.982Z,12.70
2022-12-13T14:09:59.692Z,13.73
2022-12-13T14:12:59.292Z,13.30
2022-12-13T14:16:09.596Z,13.77
2022-12-13T14:19:31.614Z,12.77
2022-12-13T14:22:18.652Z,13.87
2022-12-13T14:24:55.639Z,13.73
2022-12-13T14:27:36.054Z,13.70
2022-12-13T14:30:26.607Z,12.50
2022-12-13T14:32:55.342Z,14.60
2022-12-13T14:35:26.844Z,14.90
2022-12-13T14:38:01.025Z,12.60
2022-12-13T14:40:32.199Z,13.50
2022-12-13T14:43:00.812Z,14.03
2022-12-13T14:45:32.591Z,13.70
2022-12-13T14:48:04.483Z,13.00
2022-12-13T14:50:37.062Z,12.90
2022-12-13T14:53:06.710Z,13.03
2022-12-13T14:55:37.679Z,12.87
2022-12-13T14:58:17.808Z,12.87
2022-12-13T15:00:47.782Z,12.40
2022-12-13T15:03:24.569Z,12.87
2022-12-13T15:05:56.487Z,11.20
2022-12-13T15:08:25.481Z,11.97
2022-12-13T15:10:56.077Z,11.60
2022-12-13T15:13:31.972Z,11.90
2022-12-13T15:16:10.812Z,12.50
2022-12-13T15:18:50.671Z,11.13
2022-12-13T15:21:24.724Z,11.30
2022-12-13T15:24:00.318Z,10.80
2022-12-13T15:26:35.072Z,11.90
2022-12-13T15:29:10.312Z,10.47
2022-12-13T15:31:41.014Z,10.70
2022-12-13T15:34:29.910Z,10.87
2022-12-13T15:37:00.892Z,11.00
2022-12-13T15:39:31.072Z,10.80
2022-12-13T15:41:59.962Z,11.03
2022-12-13T15:44:31.133Z,10.63
2022-12-13T15:47:05.200Z,10.60
2022-12-13T15:49:37.778Z,10.23
2022-12-13T15:52:24.604Z,10.80
2022-12-13T15:54:57.944Z,10.43
2022-12-13T15:57:27.755Z,10.77
2022-12-13T16:00:20.318Z,10.37
2022-12-13T16:03:09.126Z,9.70
2022-12-13T16:05:41.330Z,10.57
2022-12-13T16:08:24.982Z,9.47
2022-12-13T16:10:54.140Z,9.37
2022-12-13T16:13:27.076Z,9.17
2022-12-13T16:16:08.540Z,9.00
2022-12-13T16:18:52.053Z,8.80
2022-12-13T16:21:20.371Z,9.23
2022-12-13T16:23:49.389Z,9.53
2022-12-13T16:26:24.188Z,8.80
2022-12-13T16:28:52.452Z,10.37
2022-12-13T16:31:22.376Z,9.23
2022-12-13T16:33:52.548Z,9.23
2022-12-13T16:36:21.455Z,9.23
2022-12-13T16:38:51.409Z,9.17
2022-12-13T16:41:21.941Z,8.70
2022-12-13T16:43:56.022Z,9.17
2022-12-13T16:47:14.732Z,8.40
2022-12-13T16:49:21.806Z,8.97
2022-12-13T16:51:50.425Z,8.80
2022-12-13T16:54:19.910Z,8.70
2022-12-13T16:56:48.433Z,8.50
2022-12-13T16:59:18.349Z,8.23
2022-12-13T17:01:47.253Z,8.37
2022-12-13T17:04:20.658Z,7.30
2022-12-13T17:06:54.490Z,7.60
2022-12-13T17:09:24.261Z,8.13
2022-12-13T17:11:52.591Z,8.20
2022-12-13T17:14:20.746Z,7.47
2022-12-13T17:16:49.029Z,7.23
2022-12-13T17:19:17.481Z,6.60
2022-12-13T17:21:45.696Z,7.60
2022-12-13T17:24:15.381Z,7.00
2022-12-13T17:26:54.570Z,8.20
2022-12-13T17:29:24.494Z,6.70
2022-12-13T17:31:53.309Z,6.80
2022-12-13T17:34:21.488Z,5.50
2022-12-13T17:36:49.651Z,7.40
2022-12-13T17:39:19.348Z,6.20
2022-12-13T17:41:55.256Z,6.43
2022-12-13T17:44:24.966Z,5.93
2022-12-13T17:46:54.718Z,6.20
2022-12-13T17:49:24.167Z,6.27
2022-12-13T17:51:54.259Z,5.60
2022-12-13T17:54:25.563Z,6.60
2022-12-13T17:56:54.450Z,6.10
2022-12-13T17:59:23.091Z,6.40
2022-12-13T18:01:52.281Z,6.40
2022-12-13T18:04:20.781Z,5.90
2022-12-13T18:06:52.382Z,6.17
2022-12-13T18:09:20.589Z,6.47
2022-12-13T18:11:50.318Z,6.20
2022-12-13T18:14:18.620Z,6.17
2022-12-13T18:16:46.934Z,5.43
2022-12-13T18:19:15.849Z,5.90
2022-12-13T18:21:44.362Z,5.33
2022-12-13T18:24:13.372Z,6.43
2022-12-13T18:26:41.838Z,5.40
2022-12-13T18:29:11.427Z,5.53
2022-12-13T18:31:39.798Z,5.50
2022-12-13T18:34:08.941Z,4.93
2022-12-13T18:36:39.523Z,5.87
2022-12-13T18:39:07.785Z,5.50
2022-12-13T18:41:36.044Z,6.00
2022-12-13T18:44:06.653Z,4.60
2022-12-13T18:46:39.259Z,5.00
2022-12-13T18:49:08.884Z,5.43
2022-12-13T18:51:37.131Z,5.63
2022-12-13T18:54:05.467Z,5.03
2022-12-13T18:56:33.676Z,5.30
2022-12-13T18:59:02.304Z,5.20
2022-12-13T19:01:30.672Z,5.23
2022-12-13T19:04:00.383Z,5.40
2022-12-13T19:06:29.074Z,4.87
2022-12-13T19:08:59.335Z,5.07
2022-12-13T19:11:29.193Z,5.13
2022-12-13T19:13:57.815Z,4.90
2022-12-13T19:16:26.917Z,5.70
2022-12-13T19:18:55.436Z,5.00
2022-12-13T19:21:25.282Z,4.93
2022-12-13T19:23:57.856Z,4.70
2022-12-13T19:26:27.081Z,5.00
2022-12-13T19:28:56.892Z,5.17
2022-12-13T19:31:30.478Z,4.47
2022-12-13T19:34:00.380Z,5.03
2022-12-13T19:36:30.141Z,5.20
2022-12-13T19:38:58.578Z,5.10
2022-12-13T19:41:27.158Z,4.60
2022-12-13T19:43:55.405Z,5.33
2022-12-13T19:46:23.656Z,4.80
2022-12-13T19:48:51.984Z,4.50
2022-12-13T19:51:21.441Z,5.07
2022-12-13T19:53:51.183Z,5.00
2022-12-13T19:56:21.926Z,4.93
2022-12-13T19:58:51.368Z,4.43
2022-12-13T20:01:20.037Z,4.97
2022-12-13T20:03:48.492Z,4.53
2022-12-13T20:06:19.469Z,4.67
2022-12-13T20:08:47.939Z,4.67
2022-12-13T20:11:20.418Z,4.83
2022-12-13T20:13:49.358Z,5.30
2022-12-13T20:16:20.278Z,6.23
2022-12-13T20:18:49.551Z,5.90
2022-12-13T20:21:20.134Z,6.43
2022-12-13T20:23:48.937Z,6.17
2022-12-13T20:26:21.797Z,6.30
2022-12-13T20:28:50.616Z,6.43
2022-12-13T20:31:20.986Z,5.90
2022-12-13T20:33:49.664Z,5.77
2022-12-13T20:36:24.576Z,5.50
2022-12-13T20:38:55.214Z,5.57
2022-12-13T20:41:26.183Z,5.80
2022-12-13T20:43:57.495Z,4.60
2022-12-13T20:46:27.516Z,5.63
2022-12-13T20:48:57.549Z,5.30
2022-12-13T20:51:28.152Z,5.43
2022-12-13T20:53:57.251Z,5.10
2022-12-13T20:56:29.389Z,5.30
2022-12-13T20:58:59.116Z,5.37
2022-12-13T21:01:31.641Z,4.40
2022-12-13T21:04:02.504Z,4.63
2022-12-13T21:06:32.397Z,5.03
2022-12-13T21:09:02.799Z,5.00
2022-12-13T21:11:34.493Z,5.33
2022-12-13T21:14:09.171Z,4.90
2022-12-13T21:16:42.648Z,4.57
2022-12-13T21:19:13.508Z,4.10
2022-12-13T21:21:41.927Z,4.90
2022-12-13T21:24:12.090Z,5.20
2022-12-13T21:26:41.778Z,4.77
2022-12-13T21:29:12.621Z,4.97
2022-12-13T21:31:42.872Z,4.63
2022-12-13T21:34:11.969Z,4.40
2022-12-13T21:36:42.577Z,4.60
2022-12-13T21:39:13.940Z,4.73
2022-12-13T21:41:45.111Z,5.60
2022-12-13T21:44:15.104Z,5.13
2022-12-13T21:49:32.425Z,4.13
2022-12-13T21:52:00.596Z,4.10
2022-12-13T21:54:28.746Z,4.33
2022-12-13T21:57:15.466Z,5.10
2022-12-13T21:59:44.000Z,3.60
2022-12-13T22:02:14.719Z,4.00
2022-12-13T22:04:44.630Z,4.20
2022-12-13T22:07:14.229Z,4.33
2022-12-13T22:09:42.687Z,3.80
2022-12-13T22:12:19.972Z,4.37
2022-12-13T22:14:48.937Z,3.97
2022-12-13T22:17:17.374Z,3.40
2022-12-13T22:19:48.586Z,4.97
2022-12-13T22:22:17.882Z,3.90
2022-12-13T22:24:52.993Z,4.30
2022-12-13T22:27:25.614Z,3.80
2022-12-13T22:29:55.607Z,4.20
2022-12-13T22:32:24.813Z,4.03
2022-12-13T22:34:53.408Z,3.73
2022-12-13T22:37:21.689Z,3.87
2022-12-13T22:39:49.858Z,3.70
2022-12-13T22:42:18.169Z,4.10
2022-12-13T22:44:48.257Z,3.53
2022-12-13T22:47:16.683Z,3.70
2022-12-13T22:49:44.894Z,4.40
2022-12-13T22:52:17.634Z,4.10
2022-12-13T22:54:45.929Z,3.70
2022-12-13T22:57:14.122Z,3.83
2022-12-13T22:59:42.277Z,4.00
2022-12-13T23:02:12.101Z,3.50
2022-12-13T23:04:40.480Z,3.80
2022-12-13T23:07:08.737Z,3.80
2022-12-13T23:09:36.927Z,4.47
2022-12-13T23:12:22.866Z,4.03
2022-12-13T23:14:54.692Z,3.73
2022-12-13T23:17:24.266Z,3.40
2022-12-13T23:19:53.508Z,3.80
2022-12-13T23:22:22.917Z,2.93
2022-12-13T23:24:51.200Z,4.00
2022-12-13T23:27:19.537Z,3.80
2022-12-13T23:29:47.774Z,4.10
2022-12-13T23:32:16.071Z,3.73
2022-12-13T23:34:45.616Z,3.67
2022-12-13T23:37:13.838Z,3.77
2022-12-13T23:39:42.285Z,3.70
2022-12-13T23:42:10.517Z,3.57
2022-12-13T23:44:38.723Z,3.43
2022-12-13T23:47:07.036Z,3.90
2022-12-13T23:49:35.230Z,3.53
2022-12-13T23:52:04.825Z,3.70
2022-12-13T23:54:32.977Z,3.40
2022-12-13T23:57:01.201Z,2.90
2022-12-13T23:59:29.374Z,3.30
